Time;durP1;ratioP1;P1;durP2;ratioP2;P2;SDS_P1;SDS_P2;PMS_P1;PMS_P2;Temp;Humidity;BMP_temperature;BMP_pressure;BME280_temperature;BME280_humidity;BME280_pressure;Samples;Min_cycle;Max_cycle;Signal;HPM_P1;HPM_P2
2022/10/08 04:01:21;;;;;;;15.97;13.53;;;15.90;99.90;;;;;;5551436;23;20482;-60
2022/10/08 04:03:48;;;;;;;14.57;12.37;;;15.80;99.90;;;;;;4977252;28;20458;-60
2022/10/08 04:06:15;;;;;;;13.40;12.20;;;15.80;99.90;;;;;;4977068;28;20941;-60
2022/10/08 04:08:42;;;;;;;14.13;12.83;;;15.80;99.90;;;;;;4977285;28;20505;-59
2022/10/08 04:11:11;;;;;;;16.40;14.70;;;15.80;99.90;;;;;;4976822;28;20996;-59
2022/10/08 04:13:38;;;;;;;14.57;13.03;;;15.80;99.90;;;;;;4976373;28;20477;-59
2022/10/08 04:16:07;;;;;;;15.50;13.97;;;15.80;99.90;;;;;;4977065;28;20490;-59
2022/10/08 04:18:35;;;;;;;16.77;15.30;;;15.80;99.90;;;;;;4976941;28;20482;-59
2022/10/08 04:21:04;;;;;;;16.13;14.53;;;15.80;99.90;;;;;;4977073;28;20475;-61
2022/10/08 04:23:32;;;;;;;18.90;16.33;;;15.80;99.90;;;;;;4976921;28;20454;-59
2022/10/08 04:25:59;;;;;;;17.27;14.70;;;15.80;99.90;;;;;;4977061;28;20458;-59
2022/10/08 04:28:26;;;;;;;19.80;17.80;;;15.90;99.90;;;;;;4976979;28;20482;-59
2022/10/08 04:30:57;;;;;;;18.53;15.70;;;15.80;99.90;;;;;;4976761;28;20479;-59
2022/10/08 04:33:24;;;;;;;18.57;15.80;;;15.80;99.90;;;;;;4976536;28;20798;-59
2022/10/08 04:35:52;;;;;;;18.13;14.17;;;15.90;99.90;;;;;;4977133;28;20459;-59
2022/10/08 04:38:19;;;;;;;15.87;14.17;;;15.90;99.90;;;;;;4976666;28;20478;-59
2022/10/08 04:40:46;;;;;;;18.03;15.67;;;15.80;99.90;;;;;;4976683;28;20478;-60
2022/10/08 04:43:13;;;;;;;18.00;16.13;;;15.80;99.90;;;;;;4976577;28;20458;-59
2022/10/08 04:45:43;;;;;;;18.00;16.30;;;15.80;99.90;;;;;;4976586;28;20463;-59
2022/10/08 04:48:10;;;;;;;21.90;17.43;;;15.80;99.90;;;;;;4977023;28;20455;-59
2022/10/08 04:50:37;;;;;;;20.03;18.13;;;15.80;99.90;;;;;;4976466;28;20479;-59
2022/10/08 04:53:05;;;;;;;19.27;17.17;;;15.80;99.90;;;;;;4976468;28;20514;-59
2022/10/08 04:55:32;;;;;;;19.53;17.70;;;15.80;99.90;;;;;;4976361;28;20804;-59
2022/10/08 04:57:59;;;;;;;26.10;17.47;;;15.80;99.90;;;;;;4976410;28;20459;-61
2022/10/08 05:00:25;;;;;;;20.37;16.67;;;15.80;99.90;;;;;;4976198;28;20509;-60
2022/10/08 05:02:52;;;;;;;19.77;17.80;;;15.80;99.90;;;;;;4976204;28;20439;-60
2022/10/08 05:05:19;;;;;;;22.00;16.70;;;15.80;99.90;;;;;;4975959;28;21005;-61
2022/10/08 05:07:46;;;;;;;18.90;15.90;;;15.80;99.90;;;;;;4976218;28;20459;-60
2022/10/08 05:10:14;;;;;;;18.03;16.20;;;15.80;99.90;;;;;;4976151;28;20512;-60
2022/10/08 05:12:40;;;;;;;18.23;16.33;;;15.80;99.90;;;;;;4976203;28;20533;-60
2022/10/08 05:15:08;;;;;;;18.40;16.67;;;15.80;99.90;;;;;;4976100;28;20454;-60
2022/10/08 05:17:35;;;;;;;23.63;16.07;;;15.70;99.90;;;;;;4976071;28;20794;-60
2022/10/08 05:20:02;;;;;;;17.00;15.30;;;15.70;99.90;;;;;;4976352;28;20479;-60
2022/10/08 05:22:28;;;;;;;19.50;15.70;;;15.70;99.90;;;;;;4975881;28;20506;-60
2022/10/08 05:24:55;;;;;;;19.27;15.67;;;15.70;99.90;;;;;;4975813;28;20857;-60
2022/10/08 05:27:23;;;;;;;18.43;16.33;;;15.70;99.90;;;;;;4975448;28;20469;-60
2022/10/08 05:29:50;;;;;;;17.67;15.60;;;15.70;99.90;;;;;;4975887;28;20455;-60
2022/10/08 05:32:17;;;;;;;19.83;15.90;;;15.70;99.90;;;;;;4975344;28;20534;-60
2022/10/08 05:34:43;;;;;;;19.83;16.57;;;15.70;99.90;;;;;;4975774;28;20509;-60
2022/10/08 05:37:10;;;;;;;18.33;16.57;;;15.60;99.90;;;;;;4975681;28;20509;-59
2022/10/08 05:39:37;;;;;;;19.80;17.30;;;15.60;99.90;;;;;;4975948;28;20482;-60
2022/10/08 05:42:03;;;;;;;18.10;16.33;;;15.50;99.90;;;;;;4975622;28;20474;-62
2022/10/08 05:44:31;;;;;;;18.33;16.50;;;15.50;99.90;;;;;;4975649;28;20458;-61
2022/10/08 05:46:58;;;;;;;18.17;16.43;;;15.50;99.90;;;;;;4975579;28;20517;-61
2022/10/08 05:49:25;;;;;;;17.67;15.87;;;15.50;99.90;;;;;;4975524;28;20451;-61
2022/10/08 05:51:51;;;;;;;20.93;17.07;;;15.50;99.90;;;;;;4975450;28;20478;-61
2022/10/08 05:54:18;;;;;;;22.47;17.60;;;15.40;99.90;;;;;;4975872;28;20442;-61
2022/10/08 05:56:45;;;;;;;18.30;16.50;;;15.40;99.90;;;;;;4975329;28;20455;-61
2022/10/08 05:59:16;;;;;;;22.83;17.10;;;15.40;99.90;;;;;;4975239;28;20478;-61
2022/10/08 06:01:44;;;;;;;23.83;17.60;;;15.40;99.90;;;;;;4974995;28;20889;-62
2022/10/08 06:04:12;;;;;;;19.23;17.30;;;15.40;99.90;;;;;;4975326;28;20826;-61
2022/10/08 06:06:40;;;;;;;21.23;18.33;;;15.40;99.90;;;;;;4975228;28;20455;-62
2022/10/08 06:09:10;;;;;;;21.80;17.53;;;15.40;99.90;;;;;;4976318;28;20510;-61
2022/10/08 06:11:38;;;;;;;18.67;16.97;;;15.50;99.90;;;;;;4975089;28;20479;-61
2022/10/08 06:14:06;;;;;;;19.90;17.80;;;15.50;99.90;;;;;;4975149;28;20455;-62
2022/10/08 06:16:33;;;;;;;18.93;16.60;;;15.50;99.90;;;;;;4974995;28;20461;-61
2022/10/08 06:19:02;;;;;;;17.60;15.93;;;15.50;99.90;;;;;;4975108;28;20498;-62
2022/10/08 06:21:29;;;;;;;22.30;15.87;;;15.60;99.90;;;;;;4975313;28;20479;-62
2022/10/08 06:23:57;;;;;;;19.23;16.00;;;15.60;99.90;;;;;;4975344;28;20459;-63
2022/10/08 06:26:26;;;;;;;18.83;14.83;;;15.70;99.90;;;;;;4974796;28;21017;-62
2022/10/08 06:28:53;;;;;;;16.60;14.90;;;15.70;99.90;;;;;;4975083;28;20454;-62
2022/10/08 06:31:20;;;;;;;15.97;14.27;;;15.80;99.90;;;;;;4975098;28;20474;-62
2022/10/08 06:33:47;;;;;;;17.13;14.63;;;15.80;99.90;;;;;;4975072;28;20505;-62
2022/10/08 06:36:17;;;;;;;16.80;13.33;;;15.90;99.90;;;;;;4979752;28;20462;-62
2022/10/08 06:38:49;;;;;;;17.83;13.10;;;16.00;99.90;;;;;;4981836;28;20462;-64
2022/10/08 06:41:16;;;;;;;16.10;12.10;;;16.20;99.90;;;;;;4981787;28;20509;-61
2022/10/08 06:43:42;;;;;;;15.00;13.53;;;16.40;99.90;;;;;;4981568;28;20533;-61
2022/10/08 06:46:09;;;;;;;12.80;11.50;;;16.50;99.90;;;;;;4981494;28;20481;-62
2022/10/08 06:48:36;;;;;;;12.73;11.43;;;16.70;99.90;;;;;;4981561;28;20504;-62
2022/10/08 06:51:05;;;;;;;13.70;12.40;;;16.90;99.90;;;;;;4981453;28;20531;-62
2022/10/08 06:53:34;;;;;;;14.50;11.10;;;17.10;99.90;;;;;;4981279;28;20583;-62
2022/10/08 06:56:03;;;;;;;13.57;11.63;;;17.50;99.90;;;;;;4981113;28;20462;-62
2022/10/08 06:58:30;;;;;;;10.17;9.37;;;17.80;99.90;;;;;;4980630;28;20938;-62
2022/10/08 07:01:04;;;;;;;13.50;10.40;;;18.20;99.90;;;;;;4980947;28;20914;-63
2022/10/08 07:03:31;;;;;;;11.47;9.90;;;18.50;99.90;;;;;;4980911;28;20508;-63
2022/10/08 07:06:00;;;;;;;17.77;10.97;;;18.70;99.90;;;;;;4981063;28;20458;-61
2022/10/08 07:08:27;;;;;;;11.23;9.80;;;18.90;99.90;;;;;;4981415;28;20458;-62
2022/10/08 07:10:54;;;;;;;11.43;10.33;;;19.40;99.90;;;;;;4981084;28;21048;-62
2022/10/08 07:13:21;;;;;;;11.13;9.60;;;19.80;99.90;;;;;;4981376;28;20462;-62
2022/10/08 07:15:48;;;;;;;10.30;9.30;;;20.20;99.90;;;;;;4981040;28;20481;-61
2022/10/08 07:18:15;;;;;;;9.60;8.80;;;20.70;99.90;;;;;;4981464;28;20461;-62
2022/10/08 07:20:41;;;;;;;8.97;8.00;;;21.20;99.90;;;;;;4981935;28;20896;-62
2022/10/08 07:23:08;;;;;;;10.27;7.60;;;21.60;99.90;;;;;;4982135;28;20462;-62
2022/10/08 07:25:35;;;;;;;9.60;8.67;;;21.90;99.90;;;;;;4980986;28;20867;-62
2022/10/08 07:28:03;;;;;;;10.97;7.70;;;22.20;99.90;;;;;;4980919;28;20458;-63
2022/10/08 07:30:31;;;;;;;9.20;8.10;;;22.70;99.90;;;;;;4980900;28;20509;-63
2022/10/08 07:32:59;;;;;;;11.27;6.80;;;23.10;99.90;;;;;;4980840;28;20481;-62
2022/10/08 07:35:25;;;;;;;7.00;6.30;;;23.60;99.90;;;;;;4980721;28;20871;-62
2022/10/08 07:37:52;;;;;;;6.93;5.60;;;24.20;99.90;;;;;;4980941;28;20451;-62
2022/10/08 07:40:19;;;;;;;8.93;6.77;;;24.30;99.90;;;;;;4982065;28;20474;-62
2022/10/08 07:42:45;;;;;;;6.70;5.13;;;24.90;99.90;;;;;;4981463;28;20450;-62
2022/10/08 07:45:13;;;;;;;7.40;4.90;;;25.30;99.90;;;;;;4980850;28;20459;-62
2022/10/08 07:47:40;;;;;;;7.23;4.20;;;25.50;99.90;;;;;;4977843;28;20462;-62
2022/10/08 07:50:07;;;;;;;5.97;4.17;;;25.20;96.30;;;;;;4977475;28;20954;-62
2022/10/08 07:52:34;;;;;;;6.23;3.40;;;25.40;95.90;;;;;;4977353;28;21039;-62
2022/10/08 07:55:01;;;;;;;9.90;3.93;;;25.30;93.40;;;;;;4977889;28;20450;-61
2022/10/08 07:57:27;;;;;;;8.20;3.87;;;25.20;94.20;;;;;;4977696;28;20509;-61
2022/10/08 07:59:54;;;;;;;6.90;3.10;;;25.70;93.90;;;;;;4977514;28;20510;-62
2022/10/08 08:02:22;;;;;;;8.33;3.07;;;25.40;91.40;;;;;;4977085;28;20490;-62
2022/10/08 08:04:49;;;;;;;7.87;3.30;;;25.90;91.90;;;;;;4977219;28;20941;-62
2022/10/08 08:07:15;;;;;;;6.97;3.03;;;26.20;86.80;;;;;;4977411;28;20505;-62
2022/10/08 08:09:42;;;;;;;11.33;3.90;;;26.30;86.20;;;;;;4977397;28;20447;-63
2022/10/08 08:12:09;;;;;;;4.83;3.10;;;26.10;85.10;;;;;;4977250;28;20482;-62
2022/10/08 08:14:35;;;;;;;5.30;3.83;;;26.00;86.40;;;;;;4978026;28;20803;-62
2022/10/08 08:17:02;;;;;;;11.10;3.97;;;25.70;86.40;;;;;;4977328;28;20455;-61
2022/10/08 08:19:30;;;;;;;9.10;3.50;;;25.60;87.10;;;;;;4977287;28;20486;-61
2022/10/08 08:21:57;;;;;;;6.87;3.30;;;25.50;83.50;;;;;;4977244;28;20533;-62
2022/10/08 08:24:23;;;;;;;7.80;3.50;;;25.40;91.50;;;;;;4977044;28;20459;-62
2022/10/08 08:26:50;;;;;;;6.73;2.90;;;25.00;83.20;;;;;;4976760;28;20965;-61
2022/10/08 08:29:18;;;;;;;7.77;2.83;;;24.40;87.50;;;;;;4976904;28;20505;-61
2022/10/08 08:31:46;;;;;;;12.97;3.57;;;24.30;85.00;;;;;;4976895;28;20501;-62
2022/10/08 08:34:16;;;;;;;4.80;2.73;;;24.50;84.40;;;;;;4976869;28;20458;-62
2022/10/08 08:36:46;;;;;;;6.47;2.93;;;25.10;85.20;;;;;;4976843;28;20462;-62
2022/10/08 08:39:16;;;;;;;6.17;2.83;;;25.40;82.40;;;;;;4977791;28;20450;-62
2022/10/08 08:42:02;;;;;;;5.30;3.20;;;25.90;82.80;;;;;;4976732;28;20841;-62
2022/10/08 08:44:33;;;;;;;7.23;2.57;;;26.60;79.80;;;;;;4976665;28;20450;-62
2022/10/08 08:47:02;;;;;;;6.17;3.20;;;27.30;76.50;;;;;;4976556;28;20449;-62
2022/10/08 08:49:31;;;;;;;8.07;2.80;;;27.70;72.90;;;;;;4976427;28;20451;-62
2022/10/08 08:52:01;;;;;;;6.47;3.20;;;27.70;70.80;;;;;;4976814;28;20471;-62
2022/10/08 08:54:28;;;;;;;7.13;2.80;;;27.60;68.70;;;;;;4976853;28;20454;-62
2022/10/08 08:56:55;;;;;;;5.37;3.30;;;27.30;66.80;;;;;;4976009;28;20969;-62
2022/10/08 08:59:27;;;;;;;6.50;2.90;;;27.40;69.40;;;;;;4975894;28;20985;-62
2022/10/08 09:01:58;;;;;;;5.87;2.77;;;27.40;67.50;;;;;;4976124;28;20549;-62
2022/10/08 09:04:31;;;;;;;7.40;2.90;;;27.40;65.50;;;;;;4976407;28;20451;-62
2022/10/08 09:07:01;;;;;;;7.30;2.57;;;27.60;67.70;;;;;;4976208;28;20502;-62
2022/10/08 09:09:36;;;;;;;7.67;2.80;;;27.70;66.10;;;;;;4976267;28;20457;-62
2022/10/08 09:12:12;;;;;;;7.47;2.90;;;27.80;64.80;;;;;;4977081;28;20841;-62
2022/10/08 09:14:43;;;;;;;4.87;2.67;;;27.40;65.20;;;;;;4976509;28;20933;-63
2022/10/08 09:17:14;;;;;;;4.73;2.80;;;27.70;65.30;;;;;;4976162;28;20439;-62
2022/10/08 09:19:41;;;;;;;5.70;3.10;;;28.10;63.40;;;;;;4975997;28;20872;-62
2022/10/08 09:22:22;;;;;;;6.00;2.80;;;28.20;61.80;;;;;;4975947;28;20486;-62
2022/10/08 09:24:52;;;;;;;4.60;2.40;;;28.40;63.00;;;;;;4976004;28;20450;-62
2022/10/08 09:27:19;;;;;;;12.50;3.63;;;28.20;62.00;;;;;;4975488;28;20466;-62
2022/10/08 09:29:46;;;;;;;6.97;3.43;;;28.40;62.50;;;;;;4975446;28;20455;-63
2022/10/08 09:32:18;;;;;;;7.13;2.83;;;28.40;62.80;;;;;;4975747;28;20549;-62
2022/10/08 09:34:47;;;;;;;6.87;3.00;;;28.70;64.70;;;;;;4975731;28;20506;-63
2022/10/08 09:37:22;;;;;;;6.87;3.33;;;28.90;62.70;;;;;;4975883;28;20490;-62
2022/10/08 09:40:20;;;;;;;7.50;3.40;;;28.60;60.10;;;;;;4975946;28;20524;-63
2022/10/08 09:43:09;;;;;;;9.17;2.87;;;28.30;62.80;;;;;;4975651;28;20443;-63
2022/10/08 09:45:40;;;;;;;8.70;2.70;;;28.20;61.00;;;;;;4975487;28;20443;-63
2022/10/08 09:48:19;;;;;;;6.07;3.10;;;28.30;59.60;;;;;;4975223;28;20976;-62
2022/10/08 09:50:53;;;;;;;6.97;3.23;;;28.30;60.00;;;;;;4975379;28;20474;-63
2022/10/08 09:53:24;;;;;;;4.80;3.03;;;28.00;60.90;;;;;;4975434;28;20449;-63
2022/10/08 09:55:54;;;;;;;9.23;3.70;;;28.10;64.10;;;;;;4975289;28;20443;-63
2022/10/08 09:58:22;;;;;;;7.70;3.50;;;28.50;60.80;;;;;;4975372;28;20498;-63
2022/10/08 10:01:06;;;;;;;9.07;3.13;;;28.50;60.50;;;;;;4974770;28;20993;-62
2022/10/08 10:03:34;;;;;;;5.50;3.27;;;28.20;60.90;;;;;;4974947;28;21020;-61
2022/10/08 10:06:01;;;;;;;10.90;4.27;;;27.80;61.70;;;;;;4974971;28;20852;-61
2022/10/08 10:08:45;;;;;;;4.13;2.30;;;28.20;61.90;;;;;;4974761;28;20465;-61
2022/10/08 10:11:17;;;;;;;8.20;2.93;;;28.30;59.10;;;;;;4974477;28;20475;-62
2022/10/08 10:13:47;;;;;;;9.40;2.70;;;28.20;58.70;;;;;;4975064;28;20439;-61
2022/10/08 10:16:17;;;;;;;8.53;2.87;;;28.60;57.70;;;;;;4975134;28;20451;-61
2022/10/08 10:18:52;;;;;;;5.67;1.90;;;28.80;58.30;;;;;;4975977;28;20447;-61
2022/10/08 10:21:23;;;;;;;10.43;2.57;;;29.00;56.00;;;;;;4974858;28;20536;-61
2022/10/08 10:24:03;;;;;;;13.37;2.70;;;29.00;57.50;;;;;;4975089;28;20442;-61
2022/10/08 10:26:35;;;;;;;8.53;2.50;;;29.00;56.00;;;;;;4974996;28;20842;-61
2022/10/08 10:29:08;;;;;;;6.83;2.90;;;29.40;56.90;;;;;;4975028;28;20443;-61
2022/10/08 10:31:38;;;;;;;6.10;2.80;;;29.60;56.20;;;;;;4974758;28;20509;-62
2022/10/08 10:34:10;;;;;;;8.63;2.60;;;29.60;56.80;;;;;;4974705;28;20882;-62
2022/10/08 10:36:42;;;;;;;5.60;2.87;;;29.60;56.70;;;;;;4974833;28;20446;-61
2022/10/08 10:39:23;;;;;;;9.30;2.83;;;29.30;54.70;;;;;;4974486;28;20988;-61
2022/10/08 10:41:54;;;;;;;4.00;2.37;;;28.60;55.40;;;;;;4974703;28;20508;-61
2022/10/08 10:44:24;;;;;;;6.53;2.97;;;28.40;57.50;;;;;;4975739;28;20466;-61
2022/10/08 10:46:55;;;;;;;7.77;2.43;;;27.90;56.80;;;;;;4975535;28;20446;-61
2022/10/08 10:49:25;;;;;;;5.83;2.97;;;27.80;57.10;;;;;;4975096;28;20439;-61
2022/10/08 10:52:03;;;;;;;8.30;2.70;;;27.10;56.40;;;;;;4974847;28;20476;-61
2022/10/08 10:54:48;;;;;;;4.57;2.23;;;26.70;58.70;;;;;;4974708;28;20470;-61
2022/10/08 10:57:26;;;;;;;5.07;2.30;;;26.30;59.10;;;;;;4975056;28;20439;-65
2022/10/08 11:00:03;;;;;;;2.67;2.07;;;25.90;58.90;;;;;;4974407;28;20442;-65
2022/10/08 11:02:36;;;;;;;6.97;2.13;;;25.50;59.80;;;;;;4974479;28;20478;-65
2022/10/08 11:05:07;;;;;;;4.43;2.23;;;25.20;59.90;;;;;;4975145;28;20439;-66
2022/10/08 11:07:57;;;;;;;4.57;1.83;;;24.90;58.90;;;;;;4975966;28;20435;-66
2022/10/08 11:10:37;;;;;;;5.47;2.67;;;24.70;59.80;;;;;;4974928;28;20436;-65
2022/10/08 11:13:11;;;;;;;6.57;2.53;;;24.30;60.60;;;;;;4974643;28;20489;-66
2022/10/08 11:15:44;;;;;;;4.00;1.97;;;24.00;60.60;;;;;;4974152;28;20438;-66
2022/10/08 11:18:23;;;;;;;7.60;2.87;;;23.90;64.20;;;;;;4974327;28;20933;-66
2022/10/08 11:21:05;;;;;;;6.57;2.60;;;23.80;65.40;;;;;;4974304;28;20490;-65
2022/10/08 11:23:46;;;;;;;9.60;2.20;;;23.90;65.70;;;;;;4978252;28;20447;-66
2022/10/08 11:26:24;;;;;;;7.10;2.50;;;24.10;65.80;;;;;;4977913;28;20965;-66
2022/10/08 11:28:59;;;;;;;5.80;2.30;;;24.10;65.70;;;;;;4978170;28;20442;-66
2022/10/08 11:31:34;;;;;;;4.20;1.93;;;24.10;66.10;;;;;;4978157;28;20470;-66
2022/10/08 11:34:02;;;;;;;7.53;2.27;;;24.20;66.20;;;;;;4978028;28;20438;-66
2022/10/08 11:36:36;;;;;;;5.10;3.00;;;24.10;65.00;;;;;;4977657;28;20443;-66
2022/10/08 11:39:13;;;;;;;3.70;2.00;;;24.10;65.60;;;;;;4978721;28;20498;-66
2022/10/08 11:41:48;;;;;;;5.87;2.87;;;24.00;64.00;;;;;;4977812;28;20486;-66
2022/10/08 11:44:16;;;;;;;8.03;1.93;;;23.80;66.30;;;;;;4977908;28;20445;-66
2022/10/08 11:46:42;;;;;;;8.77;2.80;;;23.60;65.30;;;;;;4977746;28;20458;-66
2022/10/08 11:49:47;;;;;;;7.13;2.57;;;23.50;64.90;;;;;;4977792;28;20869;-65
2022/10/08 11:52:15;;;;;;;4.67;1.97;;;23.40;65.60;;;;;;4977694;28;20549;-65
2022/10/08 11:54:49;;;;;;;3.77;1.83;;;23.40;67.60;;;;;;4977567;28;20454;-66
2022/10/08 11:57:21;;;;;;;3.97;2.47;;;23.40;67.70;;;;;;4977904;28;20446;-66
2022/10/08 11:59:56;;;;;;;5.43;2.27;;;23.50;66.50;;;;;;4977229;28;21022;-66
2022/10/08 12:02:27;;;;;;;6.73;2.67;;;23.70;68.50;;;;;;4977213;28;20543;-65
2022/10/08 12:04:56;;;;;;;6.40;2.23;;;23.50;67.30;;;;;;4977380;28;20802;-66
2022/10/08 12:07:34;;;;;;;4.87;2.27;;;23.40;69.20;;;;;;4977289;28;20485;-66
2022/10/08 12:10:23;;;;;;;4.23;2.20;;;23.50;69.10;;;;;;4977337;28;20521;-66
2022/10/08 12:13:23;;;;;;;5.67;2.27;;;23.40;68.30;;;;;;4976664;28;20891;-66
2022/10/08 12:15:54;;;;;;;3.60;2.20;;;23.30;69.40;;;;;;4977322;28;20458;-66
2022/10/08 12:18:52;;;;;;;5.10;2.07;;;23.40;69.10;;;;;;4977165;28;20538;-66
2022/10/08 12:21:50;;;;;;;4.13;2.10;;;23.40;69.30;;;;;;4976914;28;20514;-65
2022/10/08 12:24:54;;;;;;;4.97;2.37;;;23.40;72.50;;;;;;4936365;29;20804;-65
2022/10/08 12:27:22;;;;;;;5.30;2.33;;;23.60;72.50;;;;;;4976984;28;20438;-66
2022/10/08 12:29:58;;;;;;;5.70;1.93;;;23.60;71.40;;;;;;4976878;28;20463;-65
2022/10/08 12:32:27;;;;;;;1.73;1.63;;;23.30;72.10;;;;;;4976623;28;20495;-65
2022/10/08 12:34:54;;;;;;;4.50;1.93;;;23.00;70.10;;;;;;4976496;28;20458;-66
2022/10/08 12:37:39;;;;;;;3.70;1.73;;;22.70;67.20;;;;;;4976832;28;20857;-65
2022/10/08 12:40:15;;;;;;;2.60;1.60;;;22.10;68.20;;;;;;4976832;28;20501;-65
2022/10/08 12:42:42;;;;;;;6.30;1.60;;;22.00;70.90;;;;;;4976725;28;20850;-65
2022/10/08 12:45:22;;;;;;;6.10;1.60;;;21.90;69.80;;;;;;4976805;28;20880;-61
2022/10/08 12:47:58;;;;;;;4.30;1.50;;;21.80;72.50;;;;;;4976330;28;20443;-61
2022/10/08 12:50:38;;;;;;;4.97;2.10;;;21.80;74.20;;;;;;4976524;28;20442;-61
2022/10/08 12:53:06;;;;;;;2.33;1.70;;;21.90;71.70;;;;;;4976551;28;20489;-62
2022/10/08 12:55:37;;;;;;;3.60;1.60;;;21.90;73.50;;;;;;4976367;28;20458;-62
2022/10/08 12:58:04;;;;;;;4.93;2.20;;;22.00;74.20;;;;;;4976279;28;20438;-62
2022/10/08 13:00:33;;;;;;;6.37;1.83;;;22.10;74.60;;;;;;4976499;28;20454;-62
2022/10/08 13:03:02;;;;;;;6.72;1.70;;;21.80;74.20;;;;;;4975230;28;20935;-62
2022/10/08 13:05:30;;;;;;;6.90;1.70;;;21.70;75.50;;;;;;4975867;28;20462;-62
2022/10/08 13:07:57;;;;;;;7.77;1.50;;;21.70;75.40;;;;;;4976194;28;20506;-63
2022/10/08 13:10:27;;;;;;;6.17;1.83;;;21.80;78.30;;;;;;4976031;28;20854;-63
2022/10/08 13:13:02;;;;;;;2.87;1.40;;;21.70;75.70;;;;;;4976028;28;20454;-62
2022/10/08 13:15:29;;;;;;;2.40;1.20;;;21.70;75.30;;;;;;4975918;28;20508;-62
2022/10/08 13:17:57;;;;;;;5.30;2.10;;;21.80;76.80;;;;;;4975852;28;20454;-62
2022/10/08 13:20:24;;;;;;;6.37;1.60;;;21.70;74.00;;;;;;4975666;28;21004;-63
2022/10/08 13:22:52;;;;;;;6.73;1.80;;;21.70;74.70;;;;;;4976263;28;20458;-63
2022/10/08 13:25:35;;;;;;;6.07;1.90;;;21.70;78.00;;;;;;4975877;28;21000;-63
2022/10/08 13:28:13;;;;;;;3.40;1.60;;;21.80;76.80;;;;;;4975721;28;20445;-62
2022/10/08 13:30:40;;;;;;;5.30;1.57;;;21.80;74.60;;;;;;4975630;28;20501;-62
2022/10/08 13:33:13;;;;;;;8.07;2.17;;;21.70;74.60;;;;;;4975483;28;20455;-62
2022/10/08 13:35:41;;;;;;;5.93;1.80;;;21.80;78.00;;;;;;4975582;28;20443;-62
2022/10/08 13:38:15;;;;;;;2.45;1.45;;;22.00;76.20;;;;;;4975114;28;20921;-63
2022/10/08 13:40:49;;;;;;;3.97;2.00;;;22.00;74.80;;;;;;4975514;28;20219;-62
2022/10/08 13:43:16;;;;;;;1.80;1.43;;;21.80;73.50;;;;;;4975543;28;20446;-62
2022/10/08 13:45:42;;;;;;;3.83;1.47;;;21.70;75.40;;;;;;4974727;28;20509;-62
2022/10/08 13:48:12;;;;;;;9.20;1.80;;;21.60;78.40;;;;;;4975211;28;20467;-62
2022/10/08 13:50:43;;;;;;;5.90;1.53;;;21.50;77.70;;;;;;4974988;28;20812;-61
2022/10/08 13:53:11;;;;;;;2.60;1.57;;;21.50;79.70;;;;;;4975336;28;20505;-62
2022/10/08 13:55:40;;;;;;;3.00;1.50;;;21.40;77.30;;;;;;4974994;28;20946;-62
2022/10/08 13:58:07;;;;;;;4.47;1.80;;;21.20;79.20;;;;;;4975250;28;20458;-62
2022/10/08 14:00:36;;;;;;;3.20;1.50;;;21.10;82.30;;;;;;4975104;28;20462;-63
2022/10/08 14:03:03;;;;;;;3.13;1.43;;;21.00;78.10;;;;;;4975276;28;20474;-64
2022/10/08 14:05:35;;;;;;;3.33;1.53;;;20.90;78.60;;;;;;4975517;28;20438;-63
2022/10/08 14:08:04;;;;;;;2.53;1.60;;;20.80;80.50;;;;;;4974830;28;20954;-63
2022/10/08 14:10:31;;;;;;;7.57;1.87;;;20.70;80.30;;;;;;4975047;28;20458;-63
2022/10/08 14:12:58;;;;;;;4.27;1.50;;;20.90;83.30;;;;;;4974982;28;20470;-64
2022/10/08 14:15:24;;;;;;;3.10;1.10;;;21.00;84.00;;;;;;4974758;28;20950;-64
2022/10/08 14:17:52;;;;;;;10.00;1.40;;;21.20;82.60;;;;;;4974841;28;20486;-66
2022/10/08 14:20:19;;;;;;;8.57;1.57;;;21.30;81.70;;;;;;4974806;28;20454;-60
2022/10/08 14:22:47;;;;;;;2.93;1.20;;;21.50;82.20;;;;;;4974798;28;20478;-60
2022/10/08 14:25:16;;;;;;;5.60;1.87;;;21.60;81.60;;;;;;4974827;28;20458;-60
2022/10/08 14:27:43;;;;;;;3.80;1.27;;;21.70;81.50;;;;;;4974505;28;21011;-60
2022/10/08 14:30:11;;;;;;;2.27;1.30;;;21.80;81.20;;;;;;4974833;28;20465;-60
2022/10/08 14:32:38;;;;;;;3.10;1.50;;;21.80;80.00;;;;;;4974771;28;20621;-60
2022/10/08 14:35:06;;;;;;;3.20;1.20;;;21.80;79.50;;;;;;4975398;28;20462;-60
2022/10/08 14:37:32;;;;;;;5.03;1.47;;;21.70;78.40;;;;;;4974997;28;20455;-61
2022/10/08 14:40:01;;;;;;;79.50;12.27;;;21.60;81.80;;;;;;4974693;28;20549;-60
2022/10/08 14:42:27;;;;;;;12.50;3.40;;;21.60;80.60;;;;;;4974838;28;20478;-60
2022/10/08 14:44:54;;;;;;;33.30;5.27;;;21.50;79.60;;;;;;4974820;28;20470;-60
2022/10/08 14:47:20;;;;;;;2.90;1.67;;;21.40;78.90;;;;;;4974817;28;20482;-61
2022/10/08 14:49:47;;;;;;;3.63;1.03;;;21.30;80.40;;;;;;4974613;28;20486;-61
2022/10/08 14:52:14;;;;;;;17.27;3.97;;;21.20;79.70;;;;;;4974477;28;20806;-61
2022/10/08 14:54:40;;;;;;;4.77;1.50;;;21.10;80.60;;;;;;4974215;28;21013;-61
2022/10/08 14:57:09;;;;;;;5.13;1.33;;;21.00;79.60;;;;;;4976667;28;20850;-62
2022/10/08 14:59:35;;;;;;;7.87;3.17;;;20.90;81.00;;;;;;4978497;28;20246;-61
2022/10/08 15:02:02;;;;;;;3.70;1.00;;;20.80;81.50;;;;;;4977800;28;20890;-61
2022/10/08 15:04:28;;;;;;;1.90;1.07;;;20.70;81.20;;;;;;4978358;28;20466;-61
2022/10/08 15:06:55;;;;;;;2.97;1.10;;;20.50;80.50;;;;;;4978154;28;20481;-62
2022/10/08 15:09:22;;;;;;;2.73;1.07;;;20.40;80.60;;;;;;4978373;28;20458;-61
2022/10/08 15:11:48;;;;;;;3.90;1.20;;;20.20;80.80;;;;;;4978445;28;20486;-63
2022/10/08 15:14:16;;;;;;;1.27;1.10;;;20.00;86.10;;;;;;4978253;28;20454;-63
2022/10/08 15:16:43;;;;;;;3.77;1.10;;;19.80;85.40;;;;;;4978308;28;20489;-62
2022/10/08 15:19:10;;;;;;;2.70;1.20;;;19.70;84.50;;;;;;4978112;28;20462;-62
2022/10/08 15:21:37;;;;;;;2.63;1.37;;;19.50;86.20;;;;;;4978216;28;20537;-61
2022/10/08 15:24:04;;;;;;;4.83;1.10;;;19.40;87.30;;;;;;4978968;28;20516;-62
2022/10/08 15:26:30;;;;;;;5.23;1.57;;;19.40;88.60;;;;;;4977934;28;20458;-62
2022/10/08 15:28:57;;;;;;;2.20;1.40;;;19.30;89.90;;;;;;4978012;28;20454;-62
2022/10/08 15:31:26;;;;;;;2.30;1.00;;;19.20;91.10;;;;;;4977862;28;20474;-62
2022/10/08 15:33:54;;;;;;;2.53;0.97;;;19.20;90.90;;;;;;4977930;28;20868;-65
2022/10/08 15:36:23;;;;;;;1.90;1.40;;;19.10;89.90;;;;;;4977487;28;20455;-65
2022/10/08 15:38:56;;;;;;;3.77;1.10;;;19.10;91.20;;;;;;4977714;28;20458;-65
2022/10/08 15:41:23;;;;;;;2.93;1.20;;;18.90;91.10;;;;;;4978038;28;20470;-65
2022/10/08 15:43:49;;;;;;;3.70;1.57;;;18.90;92.10;;;;;;4977615;28;20462;-65
2022/10/08 15:46:17;;;;;;;4.13;0.83;;;18.90;93.10;;;;;;4978009;28;20451;-64
2022/10/08 15:48:52;;;;;;;1.60;1.00;;;18.90;92.20;;;;;;4977735;28;20454;-64
2022/10/08 15:51:19;;;;;;;2.87;1.30;;;18.90;93.80;;;;;;4977371;28;20654;-65
2022/10/08 15:53:46;;;;;;;1.20;1.10;;;18.90;93.00;;;;;;4977651;28;20462;-65
2022/10/08 15:56:12;;;;;;;3.60;1.40;;;18.90;92.60;;;;;;4977395;28;20946;-65
2022/10/08 15:58:40;;;;;;;4.10;1.50;;;18.80;92.70;;;;;;4977545;28;20833;-64
2022/10/08 16:01:08;;;;;;;2.43;1.10;;;18.80;92.60;;;;;;4977529;28;20482;-64
2022/10/08 16:03:36;;;;;;;3.77;2.10;;;18.70;93.10;;;;;;4978405;28;20529;-63
2022/10/08 16:06:04;;;;;;;3.73;1.10;;;18.60;92.80;;;;;;4977822;28;20439;-63
2022/10/08 16:08:31;;;;;;;2.67;1.60;;;18.40;93.30;;;;;;4976349;28;20921;-63
2022/10/08 16:10:58;;;;;;;2.10;1.60;;;18.30;94.00;;;;;;4977267;28;21070;-63
2022/10/08 16:13:25;;;;;;;2.50;1.50;;;18.20;94.60;;;;;;4977496;28;20509;-63
2022/10/08 16:15:51;;;;;;;2.93;1.33;;;18.10;95.40;;;;;;4977623;28;20530;-65
2022/10/08 16:18:18;;;;;;;3.90;1.50;;;18.00;96.30;;;;;;4977370;28;20454;-63
2022/10/08 16:20:44;;;;;;;7.40;2.33;;;17.80;97.30;;;;;;4977101;28;20482;-63
2022/10/08 16:23:13;;;;;;;4.13;2.00;;;17.70;98.00;;;;;;4976835;28;20910;-63
2022/10/08 16:25:39;;;;;;;5.33;1.63;;;17.60;98.80;;;;;;4977305;28;20517;-64
2022/10/08 16:28:06;;;;;;;5.97;1.60;;;17.30;99.90;;;;;;4977915;28;20451;-65
2022/10/08 16:30:34;;;;;;;5.60;1.83;;;17.20;99.90;;;;;;4977707;28;20530;-65
2022/10/08 16:33:01;;;;;;;5.17;2.27;;;17.10;99.90;;;;;;4977349;28;20458;-63
2022/10/08 16:35:28;;;;;;;4.73;3.10;;;17.00;99.90;;;;;;4977150;28;20455;-64
2022/10/08 16:37:54;;;;;;;3.20;2.23;;;17.00;99.90;;;;;;4976696;28;20486;-63
2022/10/08 16:40:22;;;;;;;3.37;2.20;;;16.90;99.90;;;;;;4977138;28;20459;-63
2022/10/08 16:42:49;;;;;;;5.80;2.67;;;16.70;99.90;;;;;;4977147;28;20474;-65
2022/10/08 16:45:16;;;;;;;4.53;2.50;;;16.70;99.90;;;;;;4977686;28;20510;-63
2022/10/08 16:47:42;;;;;;;8.53;2.87;;;16.60;99.90;;;;;;4977707;28;20454;-63
2022/10/08 16:50:10;;;;;;;5.90;4.30;;;16.50;99.90;;;;;;4977577;28;20517;-63
2022/10/08 16:52:36;;;;;;;4.47;3.10;;;16.50;99.90;;;;;;4977430;28;20474;-63
2022/10/08 16:55:03;;;;;;;4.90;3.20;;;16.50;99.90;;;;;;4977817;28;21005;-63